sensor_id;sensor_type;location;lat;lon;timestamp;pressure;altitude;pressure_sealevel;temperature;humidity
9289;BME280;4683;50.864;12.086;2023-07-08T00:00:25;99524.41;;;18.12;100.00
9289;BME280;4683;50.864;12.086;2023-07-08T00:02:54;99515.38;;;18.13;100.00
9289;BME280;4683;50.864;12.086;2023-07-08T00:05:25;99522.34;;;18.14;100.00
9289;BME280;4683;50.864;12.086;2023-07-08T00:07:55;99521.53;;;18.13;100.00
9289;BME280;4683;50.864;12.086;2023-07-08T00:10:26;99522.34;;;18.14;100.00
9289;BME280;4683;50.864;12.086;2023-07-08T00:12:57;99522.34;;;18.14;100.00
9289;BME280;4683;50.864;12.086;2023-07-08T00:15:31;99523.53;;;18.18;100.00
9289;BME280;4683;50.864;12.086;2023-07-08T00:18:00;99521.06;;;18.16;100.00
9289;BME280;4683;50.864;12.086;2023-07-08T00:20:35;99517.81;;;18.14;100.00
9289;BME280;4683;50.864;12.086;2023-07-08T00:23:08;99515.97;;;18.15;100.00
9289;BME280;4683;50.864;12.086;2023-07-08T00:25:38;99522.34;;;18.14;100.00
9289;BME280;4683;50.864;12.086;2023-07-08T00:28:09;99517.44;;;18.11;100.00
9289;BME280;4683;50.864;12.086;2023-07-08T00:30:40;99515.63;;;18.05;100.00
9289;BME280;4683;50.864;12.086;2023-07-08T00:33:08;99521.41;;;18.02;100.00
9289;BME280;4683;50.864;12.086;2023-07-08T00:39:44;99520.03;;;17.92;100.00
9289;BME280;4683;50.864;12.086;2023-07-08T00:42:17;99511.88;;;17.87;100.00
9289;BME280;4683;50.864;12.086;2023-07-08T00:44:46;99521.16;;;17.78;100.00
9289;BME280;4683;50.864;12.086;2023-07-08T00:47:16;99520.00;;;17.67;100.00
9289;BME280;4683;50.864;12.086;2023-07-08T00:49:47;99518.63;;;17.58;100.00
9289;BME280;4683;50.864;12.086;2023-07-08T00:52:23;99517.44;;;17.47;100.00
9289;BME280;4683;50.864;12.086;2023-07-08T00:54:56;99517.06;;;17.37;100.00
9289;BME280;4683;50.864;12.086;2023-07-08T00:57:28;99516.28;;;17.30;100.00
9289;BME280;4683;50.864;12.086;2023-07-08T01:00:02;99509.97;;;17.24;100.00
9289;BME280;4683;50.864;12.086;2023-07-08T01:02:33;99513.88;;;17.22;100.00
9289;BME280;4683;50.864;12.086;2023-07-08T01:05:09;99510.19;;;17.16;100.00
9289;BME280;4683;50.864;12.086;2023-07-08T01:07:40;99511.88;;;17.11;100.00
9289;BME280;4683;50.864;12.086;2023-07-08T01:10:18;99516.03;;;17.00;100.00
9289;BME280;4683;50.864;12.086;2023-07-08T01:12:53;99515.41;;;16.98;100.00
9289;BME280;4683;50.864;12.086;2023-07-08T01:15:35;99523.03;;;16.94;100.00
9289;BME280;4683;50.864;12.086;2023-07-08T01:18:04;99525.88;;;16.99;100.00
9289;BME280;4683;50.864;12.086;2023-07-08T01:20:33;99522.16;;;17.01;100.00
9289;BME280;4683;50.864;12.086;2023-07-08T01:23:04;99526.28;;;16.96;100.00
9289;BME280;4683;50.864;12.086;2023-07-08T01:25:32;99525.06;;;16.92;100.00
9289;BME280;4683;50.864;12.086;2023-07-08T01:28:01;99523.22;;;16.93;100.00
9289;BME280;4683;50.864;12.086;2023-07-08T01:30:30;99524.66;;;16.95;100.00
9289;BME280;4683;50.864;12.086;2023-07-08T01:33:02;99514.63;;;16.91;100.00
9289;BME280;4683;50.864;12.086;2023-07-08T01:35:32;99506.22;;;16.87;100.00
9289;BME280;4683;50.864;12.086;2023-07-08T01:38:03;99507.06;;;16.81;100.00
9289;BME280;4683;50.864;12.086;2023-07-08T01:40:35;99513.84;;;16.77;100.00
9289;BME280;4683;50.864;12.086;2023-07-08T01:43:05;99504.63;;;16.73;100.00
9289;BME280;4683;50.864;12.086;2023-07-08T01:45:37;99510.34;;;16.70;100.00
9289;BME280;4683;50.864;12.086;2023-07-08T01:48:12;99508.72;;;16.69;100.00
9289;BME280;4683;50.864;12.086;2023-07-08T01:50:46;99500.72;;;16.69;100.00
9289;BME280;4683;50.864;12.086;2023-07-08T01:53:29;99511.19;;;16.64;100.00
9289;BME280;4683;50.864;12.086;2023-07-08T01:55:57;99508.72;;;16.69;100.00
9289;BME280;4683;50.864;12.086;2023-07-08T01:58:26;99506.25;;;16.67;100.00
9289;BME280;4683;50.864;12.086;2023-07-08T02:00:54;99503.78;;;16.66;100.00
9289;BME280;4683;50.864;12.086;2023-07-08T02:03:23;99497.47;;;16.60;100.00
9289;BME280;4683;50.864;12.086;2023-07-08T02:05:51;99503.22;;;16.51;100.00
9289;BME280;4683;50.864;12.086;2023-07-08T02:08:21;99502.84;;;16.40;100.00
9289;BME280;4683;50.864;12.086;2023-07-08T02:10:52;99502.22;;;16.32;100.00
9289;BME280;4683;50.864;12.086;2023-07-08T02:13:22;99497.72;;;16.26;100.00
9289;BME280;4683;50.864;12.086;2023-07-08T02:15:51;99497.13;;;16.23;100.00
9289;BME280;4683;50.864;12.086;2023-07-08T02:18:19;99494.03;;;16.20;100.00
9289;BME280;4683;50.864;12.086;2023-07-08T02:20:47;99497.72;;;16.19;100.00
9289;BME280;4683;50.864;12.086;2023-07-08T02:23:15;99505.94;;;16.17;100.00
9289;BME280;4683;50.864;12.086;2023-07-08T02:25:52;99502.44;;;16.10;100.00
9289;BME280;4683;50.864;12.086;2023-07-08T02:28:20;99502.22;;;16.12;100.00
9289;BME280;4683;50.864;12.086;2023-07-08T02:30:49;99503.47;;;16.09;100.00
9289;BME280;4683;50.864;12.086;2023-07-08T02:33:17;99496.09;;;16.11;100.00
9289;BME280;4683;50.864;12.086;2023-07-08T02:35:45;99512.06;;;16.11;100.00
9289;BME280;4683;50.864;12.086;2023-07-08T02:38:14;99505.31;;;16.09;100.00
9289;BME280;4683;50.864;12.086;2023-07-08T02:40:43;99500.59;;;16.11;100.00
9289;BME280;4683;50.864;12.086;2023-07-08T02:43:13;99504.69;;;16.07;100.00
9289;BME280;4683;50.864;12.086;2023-07-08T02:49:47;99509.41;;;15.91;100.00
9289;BME280;4683;50.864;12.086;2023-07-08T02:52:17;99507.34;;;15.87;100.00
9289;BME280;4683;50.864;12.086;2023-07-08T02:54:45;99503.88;;;15.80;100.00
9289;BME280;4683;50.864;12.086;2023-07-08T02:57:13;99509.59;;;15.77;100.00
9289;BME280;4683;50.864;12.086;2023-07-08T02:59:46;99508.16;;;15.74;100.00
9289;BME280;4683;50.864;12.086;2023-07-08T03:02:21;99507.13;;;15.75;100.00
9289;BME280;4683;50.864;12.086;2023-07-08T03:04:53;99507.13;;;15.75;100.00
9289;BME280;4683;50.864;12.086;2023-07-08T03:07:21;99505.91;;;15.78;100.00
9289;BME280;4683;50.864;12.086;2023-07-08T03:09:49;99504.06;;;15.78;100.00
9289;BME280;4683;50.864;12.086;2023-07-08T03:12:17;99502.44;;;15.77;100.00
9289;BME280;4683;50.864;12.086;2023-07-08T03:14:48;99507.34;;;15.80;100.00
9289;BME280;4683;50.864;12.086;2023-07-08T03:17:16;99501.63;;;15.83;100.00
9289;BME280;4683;50.864;12.086;2023-07-08T03:19:46;99512.91;;;15.85;100.00
9289;BME280;4683;50.864;12.086;2023-07-08T03:22:14;99516.56;;;15.84;100.00
9289;BME280;4683;50.864;12.086;2023-07-08T03:24:43;99515.34;;;15.87;100.00
9289;BME280;4683;50.864;12.086;2023-07-08T03:27:14;99514.09;;;15.89;100.00
9289;BME280;4683;50.864;12.086;2023-07-08T03:29:42;99525.59;;;15.90;100.00
9289;BME280;4683;50.864;12.086;2023-07-08T03:32:12;99513.09;;;15.90;100.00
9289;BME280;4683;50.864;12.086;2023-07-08T03:34:40;99522.72;;;15.91;100.00
9289;BME280;4683;50.864;12.086;2023-07-08T03:37:09;99523.94;;;15.89;100.00
9289;BME280;4683;50.864;12.086;2023-07-08T03:39:38;99519.84;;;15.86;100.00
9289;BME280;4683;50.864;12.086;2023-07-08T03:42:07;99525.97;;;15.80;100.00
9289;BME280;4683;50.864;12.086;2023-07-08T03:44:35;99520.03;;;15.78;100.00
9289;BME280;4683;50.864;12.086;2023-07-08T03:47:04;99515.31;;;15.80;100.00
9289;BME280;4683;50.864;12.086;2023-07-08T03:49:34;99521.28;;;15.82;100.00
9289;BME280;4683;50.864;12.086;2023-07-08T03:52:03;99519.84;;;15.86;100.00
9289;BME280;4683;50.864;12.086;2023-07-08T03:54:32;99521.09;;;15.90;100.00
9289;BME280;4683;50.864;12.086;2023-07-08T03:57:00;99517.00;;;15.94;100.00
9289;BME280;4683;50.864;12.086;2023-07-08T03:59:29;99525.19;;;16.00;100.00
9289;BME280;4683;50.864;12.086;2023-07-08T04:01:57;99523.94;;;16.09;100.00
9289;BME280;4683;50.864;12.086;2023-07-08T04:04:26;99526.81;;;16.20;100.00
9289;BME280;4683;50.864;12.086;2023-07-08T04:06:55;99524.75;;;16.29;100.00
9289;BME280;4683;50.864;12.086;2023-07-08T04:09:24;99527.81;;;16.39;100.00
9289;BME280;4683;50.864;12.086;2023-07-08T04:11:52;99522.69;;;16.44;100.00
9289;BME280;4683;50.864;12.086;2023-07-08T04:14:20;99520.03;;;16.51;100.00
9289;BME280;4683;50.864;12.086;2023-07-08T04:16:50;99527.97;;;16.58;100.00
9289;BME280;4683;50.864;12.086;2023-07-08T04:19:19;99521.03;;;16.63;100.00
9289;BME280;4683;50.864;12.086;2023-07-08T04:21:50;99519.03;;;16.32;100.00
9289;BME280;4683;50.864;12.086;2023-07-08T04:24:20;99525.16;;;16.06;100.00
9289;BME280;4683;50.864;12.086;2023-07-08T04:26:49;99518.44;;;16.04;100.00
9289;BME280;4683;50.864;12.086;2023-07-08T04:29:21;99525.97;;;16.20;100.00
9289;BME280;4683;50.864;12.086;2023-07-08T04:31:49;99527.19;;;16.51;100.00
9289;BME280;4683;50.864;12.086;2023-07-08T04:34:18;99536.09;;;17.03;100.00
9289;BME280;4683;50.864;12.086;2023-07-08T04:36:47;99532.28;;;17.30;100.00
9289;BME280;4683;50.864;12.086;2023-07-08T04:39:15;99539.50;;;17.68;100.00
9289;BME280;4683;50.864;12.086;2023-07-08T04:41:45;99539.66;;;18.05;100.00
9289;BME280;4683;50.864;12.086;2023-07-08T04:44:14;99544.81;;;18.31;100.00
9289;BME280;4683;50.864;12.086;2023-07-08T04:46:51;99545.28;;;18.46;100.00
9289;BME280;4683;50.864;12.086;2023-07-08T04:49:22;99549.28;;;18.56;100.00
9289;BME280;4683;50.864;12.086;2023-07-08T04:51:51;99544.56;;;18.58;100.00
9289;BME280;4683;50.864;12.086;2023-07-08T04:54:20;99552.13;;;18.61;100.00
9289;BME280;4683;50.864;12.086;2023-07-08T04:56:50;99548.28;;;18.75;100.00
9289;BME280;4683;50.864;12.086;2023-07-08T04:59:22;99557.38;;;18.92;100.00
9289;BME280;4683;50.864;12.086;2023-07-08T05:01:51;99541.78;;;19.08;100.00
9289;BME280;4683;50.864;12.086;2023-07-08T05:04:22;99546.44;;;19.31;100.00
9289;BME280;4683;50.864;12.086;2023-07-08T05:06:50;99548.69;;;19.64;100.00
9289;BME280;4683;50.864;12.086;2023-07-08T05:09:19;99548.03;;;19.80;100.00
9289;BME280;4683;50.864;12.086;2023-07-08T05:11:51;99554.84;;;19.94;100.00
9289;BME280;4683;50.864;12.086;2023-07-08T05:14:19;99548.94;;;20.04;100.00
9289;BME280;4683;50.864;12.086;2023-07-08T05:16:47;99545.06;;;20.12;100.00
9289;BME280;4683;50.864;12.086;2023-07-08T05:19:16;99537.53;;;20.32;100.00
9289;BME280;4683;50.864;12.086;2023-07-08T05:21:45;99539.28;;;20.38;100.00
9289;BME280;4683;50.864;12.086;2023-07-08T05:24:15;99548.72;;;20.29;100.00
9289;BME280;4683;50.864;12.086;2023-07-08T05:26:44;99549.53;;;20.41;100.00
9289;BME280;4683;50.864;12.086;2023-07-08T05:29:14;99540.94;;;20.63;100.00
9289;BME280;4683;50.864;12.086;2023-07-08T05:31:42;99544.91;;;20.72;100.00
9289;BME280;4683;50.864;12.086;2023-07-08T05:34:14;99541.63;;;20.70;100.00
9289;BME280;4683;50.864;12.086;2023-07-08T05:36:42;99542.91;;;20.79;100.00
9289;BME280;4683;50.864;12.086;2023-07-08T05:39:10;99535.41;;;20.93;100.00
9289;BME280;4683;50.864;12.086;2023-07-08T05:41:39;99534.13;;;20.95;100.00
9289;BME280;4683;50.864;12.086;2023-07-08T05:48:15;99536.72;;;20.90;100.00
9289;BME280;4683;50.864;12.086;2023-07-08T05:50:44;99532.91;;;21.15;100.00
9289;BME280;4683;50.864;12.086;2023-07-08T05:53:13;99532.91;;;21.15;100.00
9289;BME280;4683;50.864;12.086;2023-07-08T05:55:41;99522.44;;;21.01;100.00
9289;BME280;4683;50.864;12.086;2023-07-08T05:58:11;99535.69;;;20.56;100.00
9289;BME280;4683;50.864;12.086;2023-07-08T06:00:41;99535.03;;;20.49;100.00
9289;BME280;4683;50.864;12.086;2023-07-08T06:03:10;99535.09;;;20.66;100.00
9289;BME280;4683;50.864;12.086;2023-07-08T06:05:40;99542.34;;;20.77;100.00
9289;BME280;4683;50.864;12.086;2023-07-08T06:08:08;99533.19;;;21.01;100.00
9289;BME280;4683;50.864;12.086;2023-07-08T06:10:42;99539.00;;;21.50;100.00
9289;BME280;4683;50.864;12.086;2023-07-08T06:13:10;99536.03;;;21.64;100.00
9289;BME280;4683;50.864;12.086;2023-07-08T06:15:39;99538.97;;;21.62;100.00
9289;BME280;4683;50.864;12.086;2023-07-08T06:18:07;99531.97;;;21.78;100.00
9289;BME280;4683;50.864;12.086;2023-07-08T06:20:36;99532.53;;;21.80;100.00
9289;BME280;4683;50.864;12.086;2023-07-08T06:23:05;99531.34;;;21.88;100.00
9289;BME280;4683;50.864;12.086;2023-07-08T06:25:36;99535.41;;;22.07;100.00
9289;BME280;4683;50.864;12.086;2023-07-08T06:28:05;99539.34;;;21.99;100.00
9289;BME280;4683;50.864;12.086;2023-07-08T06:30:33;99534.53;;;22.01;100.00
9289;BME280;4683;50.864;12.086;2023-07-08T06:33:02;99530.47;;;22.16;100.00
9289;BME280;4683;50.864;12.086;2023-07-08T06:35:30;99534.31;;;22.20;100.00
9289;BME280;4683;50.864;12.086;2023-07-08T06:37:58;99534.97;;;22.44;100.00
9289;BME280;4683;50.864;12.086;2023-07-08T06:40:28;99538.13;;;22.58;100.00
9289;BME280;4683;50.864;12.086;2023-07-08T06:42:56;99529.88;;;22.64;100.00
9289;BME280;4683;50.864;12.086;2023-07-08T06:45:24;99535.91;;;22.71;100.00
9289;BME280;4683;50.864;12.086;2023-07-08T06:47:52;99537.50;;;22.89;100.00
9289;BME280;4683;50.864;12.086;2023-07-08T06:50:21;99532.69;;;23.13;98.17
9289;BME280;4683;50.864;12.086;2023-07-08T06:52:49;99526.56;;;23.45;96.75
9289;BME280;4683;50.864;12.086;2023-07-08T06:55:17;99517.00;;;23.81;92.46
9289;BME280;4683;50.864;12.086;2023-07-08T06:57:47;99521.97;;;23.94;87.84
9289;BME280;4683;50.864;12.086;2023-07-08T07:00:15;99524.47;;;24.06;86.73
9289;BME280;4683;50.864;12.086;2023-07-08T07:02:43;99516.03;;;23.97;86.67
9289;BME280;4683;50.864;12.086;2023-07-08T07:05:12;99511.13;;;24.21;85.77
9289;BME280;4683;50.864;12.086;2023-07-08T07:07:40;99520.59;;;24.29;85.37
9289;BME280;4683;50.864;12.086;2023-07-08T07:10:09;99509.50;;;24.58;78.53
9289;BME280;4683;50.864;12.086;2023-07-08T07:12:37;99507.53;;;25.05;73.12
9289;BME280;4683;50.864;12.086;2023-07-08T07:15:09;99513.63;;;25.48;67.64
9289;BME280;4683;50.864;12.086;2023-07-08T07:17:41;99511.25;;;25.83;64.41
9289;BME280;4683;50.864;12.086;2023-07-08T07:20:11;99511.53;;;26.01;63.58
9289;BME280;4683;50.864;12.086;2023-07-08T07:22:39;99519.31;;;26.39;62.33
9289;BME280;4683;50.864;12.086;2023-07-08T07:25:09;99519.63;;;26.47;60.95
9289;BME280;4683;50.864;12.086;2023-07-08T07:27:37;99511.97;;;26.70;60.15
9289;BME280;4683;50.864;12.086;2023-07-08T07:30:08;99516.91;;;26.63;58.11
9289;BME280;4683;50.864;12.086;2023-07-08T07:32:39;99511.75;;;26.66;59.60
9289;BME280;4683;50.864;12.086;2023-07-08T07:35:08;99516.78;;;26.88;59.13
9289;BME280;4683;50.864;12.086;2023-07-08T07:37:40;99509.13;;;27.16;57.48
9289;BME280;4683;50.864;12.086;2023-07-08T07:40:11;99500.88;;;27.36;55.34
9289;BME280;4683;50.864;12.086;2023-07-08T07:42:43;99496.78;;;27.44;55.48
9289;BME280;4683;50.864;12.086;2023-07-08T07:45:14;99496.97;;;27.52;54.29
9289;BME280;4683;50.864;12.086;2023-07-08T07:47:42;99492.50;;;27.77;53.40
9289;BME280;4683;50.864;12.086;2023-07-08T07:50:10;99496.53;;;27.79;51.83
9289;BME280;4683;50.864;12.086;2023-07-08T07:52:39;99487.25;;;27.46;52.89
9289;BME280;4683;50.864;12.086;2023-07-08T07:55:09;99490.22;;;27.50;53.03
9289;BME280;4683;50.864;12.086;2023-07-08T07:57:38;99493.16;;;27.59;53.21
9289;BME280;4683;50.864;12.086;2023-07-08T08:00:10;99496.31;;;27.76;53.91
9289;BME280;4683;50.864;12.086;2023-07-08T08:02:42;99494.91;;;28.13;51.81
9289;BME280;4683;50.864;12.086;2023-07-08T08:05:10;99491.78;;;28.24;51.26
9289;BME280;4683;50.864;12.086;2023-07-08T08:07:38;99488.31;;;28.19;50.85
9289;BME280;4683;50.864;12.086;2023-07-08T08:10:08;99489.00;;;28.05;51.26
9289;BME280;4683;50.864;12.086;2023-07-08T08:12:38;99500.72;;;28.30;51.13
9289;BME280;4683;50.864;12.086;2023-07-08T08:15:08;99497.31;;;28.43;50.59
9289;BME280;4683;50.864;12.086;2023-07-08T08:17:36;99495.66;;;28.47;50.27
9289;BME280;4683;50.864;12.086;2023-07-08T08:20:08;99497.06;;;28.69;49.03
9289;BME280;4683;50.864;12.086;2023-07-08T08:22:36;99494.97;;;28.85;49.03
9289;BME280;4683;50.864;12.086;2023-07-08T08:25:05;99494.50;;;29.01;48.58
9289;BME280;4683;50.864;12.086;2023-07-08T08:27:38;99498.41;;;29.14;47.69
9289;BME280;4683;50.864;12.086;2023-07-08T08:30:09;99497.31;;;29.34;47.22
9289;BME280;4683;50.864;12.086;2023-07-08T08:32:38;99506.16;;;29.26;47.90
9289;BME280;4683;50.864;12.086;2023-07-08T08:35:09;99500.81;;;28.97;48.48
9289;BME280;4683;50.864;12.086;2023-07-08T08:37:37;99504.56;;;28.77;49.00
9289;BME280;4683;50.864;12.086;2023-07-08T08:40:13;99507.78;;;28.79;48.02
9289;BME280;4683;50.864;12.086;2023-07-08T08:42:46;99503.06;;;28.90;48.40
9289;BME280;4683;50.864;12.086;2023-07-08T08:45:22;99513.69;;;29.10;48.51
9289;BME280;4683;50.864;12.086;2023-07-08T08:47:59;99506.97;;;29.26;46.89
9289;BME280;4683;50.864;12.086;2023-07-08T08:50:44;99504.81;;;29.42;46.30
9289;BME280;4683;50.864;12.086;2023-07-08T08:53:33;99505.50;;;29.72;45.46
9289;BME280;4683;50.864;12.086;2023-07-08T08:56:11;99511.13;;;29.94;44.31
9289;BME280;4683;50.864;12.086;2023-07-08T08:58:46;99502.63;;;30.15;44.10
9289;BME280;4683;50.864;12.086;2023-07-08T09:01:18;99508.81;;;30.34;43.94
9289;BME280;4683;50.864;12.086;2023-07-08T09:03:51;99506.41;;;30.32;43.29
9289;BME280;4683;50.864;12.086;2023-07-08T09:06:26;99502.06;;;30.45;42.80
9289;BME280;4683;50.864;12.086;2023-07-08T09:09:00;99503.41;;;30.62;42.63
9289;BME280;4683;50.864;12.086;2023-07-08T09:11:42;99500.56;;;30.39;42.21
9289;BME280;4683;50.864;12.086;2023-07-08T09:14:20;99500.84;;;30.38;42.43
9289;BME280;4683;50.864;12.086;2023-07-08T09:16:58;99489.22;;;30.18;42.27
9289;BME280;4683;50.864;12.086;2023-07-08T09:19:37;99494.63;;;30.04;42.95
9289;BME280;4683;50.864;12.086;2023-07-08T09:22:15;99493.06;;;30.17;42.46
9289;BME280;4683;50.864;12.086;2023-07-08T09:24:53;99492.31;;;30.44;41.61
9289;BME280;4683;50.864;12.086;2023-07-08T09:27:23;99490.69;;;30.57;39.91
9289;BME280;4683;50.864;12.086;2023-07-08T09:29:53;99486.16;;;30.66;40.16
9289;BME280;4683;50.864;12.086;2023-07-08T09:32:23;99494.13;;;30.90;39.44
9289;BME280;4683;50.864;12.086;2023-07-08T09:34:54;99487.97;;;30.98;39.36
9289;BME280;4683;50.864;12.086;2023-07-08T09:37:29;99483.53;;;31.02;39.23
9289;BME280;4683;50.864;12.086;2023-07-08T09:39:59;99480.47;;;31.18;38.94
9289;BME280;4683;50.864;12.086;2023-07-08T09:42:32;99478.09;;;31.25;38.88
9289;BME280;4683;50.864;12.086;2023-07-08T09:45:03;99480.03;;;31.24;39.05
9289;BME280;4683;50.864;12.086;2023-07-08T09:47:43;99475.91;;;31.13;38.97
9289;BME280;4683;50.864;12.086;2023-07-08T09:50:19;99481.19;;;30.68;38.76
9289;BME280;4683;50.864;12.086;2023-07-08T09:52:52;99482.53;;;30.98;39.28
9289;BME280;4683;50.864;12.086;2023-07-08T09:55:24;99479.94;;;31.16;39.19
9289;BME280;4683;50.864;12.086;2023-07-08T09:57:54;99476.50;;;31.24;38.90
9289;BME280;4683;50.864;12.086;2023-07-08T10:00:30;99481.34;;;31.27;37.93
9289;BME280;4683;50.864;12.086;2023-07-08T10:03:08;99475.78;;;31.32;37.74
9289;BME280;4683;50.864;12.086;2023-07-08T10:05:42;99472.09;;;31.50;37.55
9289;BME280;4683;50.864;12.086;2023-07-08T10:08:17;99477.81;;;31.63;36.77
9289;BME280;4683;50.864;12.086;2023-07-08T10:10:55;99472.34;;;31.63;37.11
9289;BME280;4683;50.864;12.086;2023-07-08T10:13:37;99468.25;;;31.74;36.15
9289;BME280;4683;50.864;12.086;2023-07-08T10:16:14;99465.22;;;31.98;36.81
9289;BME280;4683;50.864;12.086;2023-07-08T10:18:44;99464.63;;;32.10;35.17
9289;BME280;4683;50.864;12.086;2023-07-08T10:21:23;99454.59;;;31.96;35.16
9289;BME280;4683;50.864;12.086;2023-07-08T10:24:09;99453.00;;;31.95;34.51
9289;BME280;4683;50.864;12.086;2023-07-08T10:26:48;99454.22;;;32.12;33.97
9289;BME280;4683;50.864;12.086;2023-07-08T10:29:29;99449.53;;;32.03;33.71
9289;BME280;4683;50.864;12.086;2023-07-08T10:32:12;99450.84;;;32.15;32.67
9289;BME280;4683;50.864;12.086;2023-07-08T10:34:52;99451.03;;;31.87;31.60
9289;BME280;4683;50.864;12.086;2023-07-08T10:37:33;99449.00;;;31.79;31.94
9289;BME280;4683;50.864;12.086;2023-07-08T10:40:28;99448.81;;;31.89;31.27
9289;BME280;4683;50.864;12.086;2023-07-08T10:43:35;99446.03;;;32.12;31.49
9289;BME280;4683;50.864;12.086;2023-07-08T10:46:21;99453.25;;;32.39;30.48
9289;BME280;4683;50.864;12.086;2023-07-08T10:49:28;99451.66;;;32.46;30.70
9289;BME280;4683;50.864;12.086;2023-07-08T10:52:17;99446.84;;;32.52;30.01
9289;BME280;4683;50.864;12.086;2023-07-08T10:55:14;99441.38;;;32.43;29.68
9289;BME280;4683;50.864;12.086;2023-07-08T10:58:13;99451.03;;;32.49;29.55
9289;BME280;4683;50.864;12.086;2023-07-08T11:00:52;99444.78;;;32.57;30.21
9289;BME280;4683;50.864;12.086;2023-07-08T11:06:27;99449.41;;;33.23;29.46
9289;BME280;4683;50.864;12.086;2023-07-08T11:08:58;99444.56;;;33.37;29.32
9289;BME280;4683;50.864;12.086;2023-07-08T11:11:34;99441.53;;;33.30;29.47
9289;BME280;4683;50.864;12.086;2023-07-08T11:14:12;99442.97;;;33.27;28.52
9289;BME280;4683;50.864;12.086;2023-07-08T11:16:48;99430.88;;;33.72;27.62
9289;BME280;4683;50.864;12.086;2023-07-08T11:19:24;99436.06;;;33.39;27.63
9289;BME280;4683;50.864;12.086;2023-07-08T11:21:57;99440.06;;;32.98;27.53
9289;BME280;4683;50.864;12.086;2023-07-08T11:24:36;99440.38;;;33.14;27.66
9289;BME280;4683;50.864;12.086;2023-07-08T11:27:14;99443.78;;;33.45;27.35
9289;BME280;4683;50.864;12.086;2023-07-08T11:29:50;99436.84;;;33.39;27.18
9289;BME280;4683;50.864;12.086;2023-07-08T11:32:23;99439.91;;;33.29;27.46
9289;BME280;4683;50.864;12.086;2023-07-08T11:34:56;99436.56;;;33.49;26.82
9289;BME280;4683;50.864;12.086;2023-07-08T11:37:34;99429.47;;;33.57;26.85
9289;BME280;4683;50.864;12.086;2023-07-08T11:40:18;99431.53;;;33.69;26.32
9289;BME280;4683;50.864;12.086;2023-07-08T11:42:53;99426.09;;;34.16;26.21
9289;BME280;4683;50.864;12.086;2023-07-08T11:45:37;99426.53;;;33.79;26.47
9289;BME280;4683;50.864;12.086;2023-07-08T11:48:15;99425.06;;;32.87;27.19
9289;BME280;4683;50.864;12.086;2023-07-08T11:51:00;99430.63;;;32.55;28.21
9289;BME280;4683;50.864;12.086;2023-07-08T11:54:13;99432.16;;;32.96;27.93
9289;BME280;4683;50.864;12.086;2023-07-08T11:56:59;99424.47;;;33.50;27.52
9289;BME280;4683;50.864;12.086;2023-07-08T11:59:38;99423.34;;;34.16;26.81
9289;BME280;4683;50.864;12.086;2023-07-08T12:02:13;99425.69;;;34.35;26.60
9289;BME280;4683;50.864;12.086;2023-07-08T12:05:11;99426.00;;;33.86;27.41
9289;BME280;4683;50.864;12.086;2023-07-08T12:07:54;99422.41;;;34.12;26.57
9289;BME280;4683;50.864;12.086;2023-07-08T12:10:34;99419.88;;;33.89;26.66
9289;BME280;4683;50.864;12.086;2023-07-08T12:13:05;99415.78;;;34.21;26.87
9289;BME280;4683;50.864;12.086;2023-07-08T12:15:38;99414.72;;;33.96;26.81
9289;BME280;4683;50.864;12.086;2023-07-08T12:18:14;99423.47;;;33.64;27.45
9289;BME280;4683;50.864;12.086;2023-07-08T12:20:47;99418.09;;;33.93;27.35
9289;BME280;4683;50.864;12.086;2023-07-08T12:23:19;99421.53;;;33.73;27.33
9289;BME280;4683;50.864;12.086;2023-07-08T12:25:48;99417.25;;;34.10;26.76
9289;BME280;4683;50.864;12.086;2023-07-08T12:28:18;99412.75;;;34.05;26.40
9289;BME280;4683;50.864;12.086;2023-07-08T12:30:49;99413.44;;;34.02;26.21
9289;BME280;4683;50.864;12.086;2023-07-08T12:33:24;99420.44;;;34.21;26.46
9289;BME280;4683;50.864;12.086;2023-07-08T12:35:55;99407.78;;;34.07;26.89
9289;BME280;4683;50.864;12.086;2023-07-08T12:38:37;99411.28;;;33.35;27.02
9289;BME280;4683;50.864;12.086;2023-07-08T12:41:11;99406.38;;;33.84;26.96
9289;BME280;4683;50.864;12.086;2023-07-08T12:43:40;99402.47;;;34.02;26.75
9289;BME280;4683;50.864;12.086;2023-07-08T12:46:12;99395.72;;;34.00;27.17
9289;BME280;4683;50.864;12.086;2023-07-08T12:48:42;99403.13;;;33.91;26.73
9289;BME280;4683;50.864;12.086;2023-07-08T12:51:14;99402.22;;;33.61;26.90
9289;BME280;4683;50.864;12.086;2023-07-08T12:53:43;99396.81;;;33.17;27.35
9289;BME280;4683;50.864;12.086;2023-07-08T12:56:11;99396.47;;;33.36;27.15
9289;BME280;4683;50.864;12.086;2023-07-08T12:58:43;99393.50;;;33.76;27.54
9289;BME280;4683;50.864;12.086;2023-07-08T13:01:18;99391.56;;;33.85;27.64
9289;BME280;4683;50.864;12.086;2023-07-08T13:03:50;99397.00;;;34.02;27.64
9289;BME280;4683;50.864;12.086;2023-07-08T13:06:23;99388.59;;;34.07;28.33
9289;BME280;4683;50.864;12.086;2023-07-08T13:08:54;99385.63;;;33.66;29.45
9289;BME280;4683;50.864;12.086;2023-07-08T13:11:27;99393.16;;;33.86;29.71
9289;BME280;4683;50.864;12.086;2023-07-08T13:13:58;99392.50;;;33.89;29.24
9289;BME280;4683;50.864;12.086;2023-07-08T13:16:33;99380.97;;;33.75;29.14
9289;BME280;4683;50.864;12.086;2023-07-08T13:19:02;99377.28;;;33.71;29.60
9289;BME280;4683;50.864;12.086;2023-07-08T13:21:32;99371.63;;;33.76;29.49
9289;BME280;4683;50.864;12.086;2023-07-08T13:24:06;99367.88;;;33.89;29.23
9289;BME280;4683;50.864;12.086;2023-07-08T13:26:37;99373.69;;;33.79;29.48
9289;BME280;4683;50.864;12.086;2023-07-08T13:29:13;99368.97;;;33.88;29.22
9289;BME280;4683;50.864;12.086;2023-07-08T13:31:47;99377.16;;;34.05;28.88
9289;BME280;4683;50.864;12.086;2023-07-08T13:34:19;99385.38;;;34.05;29.32
9289;BME280;4683;50.864;12.086;2023-07-08T13:36:52;99376.19;;;33.93;29.28
9289;BME280;4683;50.864;12.086;2023-07-08T13:39:25;99367.75;;;33.77;29.41
9289;BME280;4683;50.864;12.086;2023-07-08T13:41:55;99368.88;;;33.76;29.19
9289;BME280;4683;50.864;12.086;2023-07-08T13:44:25;99366.13;;;33.76;28.59
9289;BME280;4683;50.864;12.086;2023-07-08T13:46:59;99370.66;;;33.72;28.94